createdAt,value
2019-06-07T00:00:56.884Z,85.60
2019-06-07T00:03:30.095Z,85.60
2019-06-07T00:06:02.120Z,85.50
2019-06-07T00:08:35.908Z,85.50
2019-06-07T00:11:07.745Z,85.30
2019-06-07T00:13:39.191Z,85.30
2019-06-07T00:16:11.910Z,85.30
2019-06-07T00:18:42.541Z,85.10
2019-06-07T00:21:14.442Z,85.10
2019-06-07T00:23:45.383Z,84.90
2019-06-07T00:26:18.184Z,84.70
2019-06-07T00:28:48.438Z,84.70
2019-06-07T00:31:24.372Z,84.70
2019-06-07T00:33:51.411Z,84.70
2019-06-07T00:36:23.238Z,84.50
2019-06-07T00:38:54.552Z,84.40
2019-06-07T00:41:25.621Z,84.40
2019-06-07T00:43:56.419Z,85.30
2019-06-07T00:46:27.338Z,84.30
2019-06-07T00:48:58.669Z,84.30
2019-06-07T00:51:49.206Z,84.10
2019-06-07T00:54:06.711Z,83.90
2019-06-07T00:56:37.562Z,83.90
2019-06-07T00:59:11.599Z,83.80
2019-06-07T01:01:40.473Z,83.50
2019-06-07T01:04:12.976Z,83.40
2019-06-07T01:06:45.917Z,83.20
2019-06-07T01:09:17.771Z,83.10
2019-06-07T01:11:48.935Z,83.00
2019-06-07T01:14:24.141Z,83.00
2019-06-07T01:17:01.255Z,82.90
2019-06-07T01:19:27.586Z,83.60
2019-06-07T01:21:56.952Z,82.70
2019-06-07T01:24:28.043Z,82.70
2019-06-07T01:26:59.120Z,82.30
2019-06-07T01:29:31.102Z,82.10
2019-06-07T01:32:04.502Z,82.10
2019-06-07T01:34:38.466Z,81.90
2019-06-07T01:37:09.544Z,81.90
2019-06-07T01:39:40.501Z,81.50
2019-06-07T01:42:12.325Z,81.30
2019-06-07T01:44:43.352Z,81.40
2019-06-07T01:47:14.253Z,80.80
2019-06-07T01:49:45.448Z,80.70
2019-06-07T01:52:16.545Z,80.60
2019-06-07T01:54:57.396Z,80.90
2019-06-07T01:57:38.411Z,80.40
2019-06-07T01:59:53.353Z,80.40
2019-06-07T02:02:28.052Z,80.40
2019-06-07T02:04:57.366Z,80.20
2019-06-07T02:07:32.621Z,81.10
2019-06-07T02:10:00.551Z,80.00
2019-06-07T02:12:40.197Z,79.90
2019-06-07T02:15:04.024Z,79.90
2019-06-07T02:17:34.714Z,79.50
2019-06-07T02:20:07.190Z,79.70
2019-06-07T02:22:38.066Z,79.40
2019-06-07T02:27:41.624Z,79.50
2019-06-07T02:32:45.692Z,79.10
2019-06-07T02:35:19.589Z,79.10
2019-06-07T02:37:51.104Z,78.30
2019-06-07T02:40:22.128Z,78.50
2019-06-07T02:42:53.687Z,77.30
2019-06-07T02:45:29.229Z,77.50
2019-06-07T02:47:58.214Z,77.50
2019-06-07T02:50:34.054Z,77.40
2019-06-07T02:53:03.280Z,77.80
2019-06-07T02:56:11.668Z,77.70
2019-06-07T02:58:07.529Z,77.50
2019-06-07T03:00:58.741Z,77.20
2019-06-07T03:03:16.797Z,76.40
2019-06-07T03:05:49.508Z,76.30
2019-06-07T03:08:20.880Z,75.80
2019-06-07T03:10:53.889Z,76.10
2019-06-07T03:13:28.466Z,76.00
2019-06-07T03:16:00.373Z,75.80
2019-06-07T03:18:34.383Z,74.90
2019-06-07T03:21:07.552Z,75.40
2019-06-07T03:23:39.253Z,75.20
2019-06-07T03:26:10.445Z,73.90
2019-06-07T03:28:41.739Z,74.80
2019-06-07T03:31:12.773Z,74.50
2019-06-07T03:33:45.542Z,73.70
2019-06-07T03:36:23.999Z,72.10
2019-06-07T03:38:48.476Z,72.20
2019-06-07T03:41:19.872Z,72.70
2019-06-07T03:43:50.751Z,71.90
2019-06-07T03:46:21.736Z,72.30
2019-06-07T03:48:53.486Z,71.60
2019-06-07T03:51:26.930Z,72.20
2019-06-07T03:53:56.534Z,71.20
2019-06-07T03:56:28.312Z,72.30
2019-06-07T03:58:59.700Z,72.50
2019-06-07T04:01:32.233Z,72.10
2019-06-07T04:04:03.045Z,72.00
2019-06-07T04:06:36.179Z,72.20
2019-06-07T04:09:08.251Z,72.10
2019-06-07T04:11:40.810Z,72.60
2019-06-07T04:14:11.718Z,71.50
2019-06-07T04:16:44.823Z,71.60
2019-06-07T04:19:15.009Z,71.30
2019-06-07T04:21:45.857Z,71.60
2019-06-07T04:24:20.740Z,72.20
2019-06-07T04:26:53.000Z,72.80
2019-06-07T04:29:32.895Z,71.60
2019-06-07T04:31:57.610Z,71.50
2019-06-07T04:34:29.313Z,71.50
2019-06-07T04:37:02.191Z,71.50
2019-06-07T04:39:37.795Z,71.80
2019-06-07T04:42:07.454Z,71.90
2019-06-07T04:44:42.579Z,71.30
2019-06-07T04:47:14.088Z,72.00
2019-06-07T04:49:48.123Z,70.60
2019-06-07T04:52:19.334Z,71.10
2019-06-07T04:54:50.393Z,71.10
2019-06-07T04:57:24.454Z,70.00
2019-06-07T05:00:12.272Z,70.40
2019-06-07T05:02:27.668Z,70.40
2019-06-07T05:04:58.726Z,70.40
2019-06-07T05:07:30.919Z,70.60
2019-06-07T05:10:02.112Z,71.10
2019-06-07T05:12:35.409Z,71.00
2019-06-07T05:15:06.817Z,70.70
2019-06-07T05:17:41.806Z,70.40
2019-06-07T05:20:10.316Z,70.30
2019-06-07T05:22:45.096Z,71.70
2019-06-07T05:25:20.647Z,71.20
2019-06-07T05:27:51.574Z,70.20
2019-06-07T05:30:59.516Z,70.30
2019-06-07T05:32:58.765Z,71.00
2019-06-07T05:35:33.105Z,70.90
2019-06-07T05:38:04.302Z,70.60
2019-06-07T05:40:39.410Z,70.40
2019-06-07T05:43:09.948Z,70.70
2019-06-07T05:45:44.885Z,70.00
2019-06-07T05:48:16.623Z,70.70
2019-06-07T05:50:56.442Z,71.00
2019-06-07T05:53:20.458Z,70.90
2019-06-07T05:55:51.292Z,70.80
2019-06-07T05:58:22.009Z,69.90
2019-06-07T06:00:53.103Z,70.20
2019-06-07T06:03:24.060Z,70.00
2019-06-07T06:05:55.680Z,69.80
2019-06-07T06:08:26.922Z,69.00
2019-06-07T06:10:59.988Z,69.30
2019-06-07T06:13:31.874Z,69.30
2019-06-07T06:16:03.152Z,67.70
2019-06-07T06:18:34.023Z,69.10
2019-06-07T06:21:18.098Z,68.80
2019-06-07T06:23:39.567Z,67.70
2019-06-07T06:26:09.819Z,67.90
2019-06-07T06:28:42.546Z,66.40
2019-06-07T06:31:12.875Z,66.70
2019-06-07T06:33:45.243Z,66.90
2019-06-07T06:36:16.705Z,67.70
2019-06-07T06:38:52.690Z,67.80
2019-06-07T06:41:24.563Z,67.60
2019-06-07T06:43:55.402Z,67.00
2019-06-07T06:46:38.924Z,67.60
2019-06-07T06:48:59.228Z,66.50
2019-06-07T06:51:30.447Z,66.70
2019-06-07T06:54:01.372Z,67.20
2019-06-07T06:56:32.138Z,66.40
2019-06-07T07:01:35.368Z,66.90
2019-06-07T07:04:13.017Z,66.40
2019-06-07T07:06:38.821Z,65.60
2019-06-07T07:09:09.880Z,63.90
2019-06-07T07:11:59.277Z,65.00
2019-06-07T07:14:13.137Z,65.70
2019-06-07T07:16:45.779Z,65.50
2019-06-07T07:19:16.145Z,66.70
2019-06-07T07:21:51.460Z,66.00
2019-06-07T07:24:22.075Z,66.20
2019-06-07T07:26:53.957Z,65.10
2019-06-07T07:29:24.599Z,65.90
2019-06-07T07:31:56.596Z,65.40
2019-06-07T07:34:36.346Z,65.50
2019-06-07T07:37:00.037Z,66.40
2019-06-07T07:39:30.847Z,64.10
2019-06-07T07:42:20.036Z,63.90
2019-06-07T07:44:33.931Z,62.40
2019-06-07T07:47:04.857Z,63.20
2019-06-07T07:49:35.626Z,61.40
2019-06-07T07:52:06.909Z,64.40
2019-06-07T07:54:38.219Z,64.80
2019-06-07T07:57:09.171Z,62.90
2019-06-07T07:59:44.149Z,63.90
2019-06-07T08:02:12.266Z,63.10
2019-06-07T08:05:13.899Z,64.50
2019-06-07T08:07:15.523Z,65.00
2019-06-07T08:09:47.546Z,63.10
2019-06-07T08:12:19.389Z,64.00
2019-06-07T08:14:51.316Z,63.60
2019-06-07T08:17:22.600Z,64.60
2019-06-07T08:19:54.992Z,66.00
2019-06-07T08:22:25.667Z,66.00
2019-06-07T08:24:59.870Z,65.20
2019-06-07T08:27:29.213Z,64.70
2019-06-07T08:30:33.560Z,65.80
2019-06-07T08:32:32.493Z,66.50
2019-06-07T08:35:06.706Z,65.40
2019-06-07T08:40:18.940Z,65.70
2019-06-07T08:43:10.734Z,64.70
2019-06-07T08:45:23.640Z,65.90
2019-06-07T08:47:58.172Z,64.40
2019-06-07T08:50:28.351Z,65.00
2019-06-07T08:53:10.632Z,66.20
2019-06-07T08:55:34.921Z,65.60
2019-06-07T08:58:08.987Z,65.70
2019-06-07T09:00:46.513Z,65.60
2019-06-07T09:03:14.286Z,65.30
2019-06-07T09:05:45.528Z,65.40
2019-06-07T09:08:29.432Z,65.60
2019-06-07T09:10:48.627Z,65.50
2019-06-07T09:13:19.279Z,66.20
2019-06-07T09:15:50.736Z,66.90
2019-06-07T09:18:43.936Z,67.10
2019-06-07T09:20:55.637Z,67.40
2019-06-07T09:23:27.303Z,67.80
2019-06-07T09:26:06.459Z,68.20
2019-06-07T09:28:31.894Z,68.50
2019-06-07T09:31:06.902Z,68.50
2019-06-07T09:33:35.029Z,69.80
2019-06-07T09:36:09.418Z,69.00
2019-06-07T09:38:38.829Z,68.80
2019-06-07T09:41:09.907Z,68.80
2019-06-07T09:44:01.938Z,68.90
2019-06-07T09:46:16.198Z,69.20
2019-06-07T09:49:14.574Z,69.50
2019-06-07T09:51:20.437Z,69.20
2019-06-07T09:53:51.112Z,68.90
2019-06-07T09:56:23.868Z,69.00
2019-06-07T09:58:55.388Z,69.30
2019-06-07T10:01:26.901Z,69.20
2019-06-07T10:04:03.644Z,68.80
2019-06-07T10:06:30.358Z,68.60
2019-06-07T10:11:34.475Z,68.80
2019-06-07T10:14:06.803Z,68.60
2019-06-07T10:16:46.608Z,68.70
2019-06-07T10:19:10.223Z,68.80
2019-06-07T10:21:41.099Z,68.80
2019-06-07T10:24:12.068Z,68.80
2019-06-07T10:26:42.806Z,68.90
2019-06-07T10:29:13.617Z,68.60
2019-06-07T10:31:44.522Z,68.80
2019-06-07T10:34:15.328Z,68.90
2019-06-07T10:36:46.061Z,69.00
2019-06-07T10:39:17.055Z,69.10
2019-06-07T10:41:47.859Z,69.00
2019-06-07T10:44:18.563Z,69.20
2019-06-07T10:46:49.441Z,69.10
2019-06-07T10:49:20.390Z,69.00
2019-06-07T10:51:51.027Z,68.90
2019-06-07T10:54:29.542Z,68.90
2019-06-07T10:56:54.159Z,69.10
2019-06-07T10:59:25.164Z,69.30
2019-06-07T11:01:56.087Z,69.30
2019-06-07T11:04:26.978Z,69.30
2019-06-07T11:06:57.825Z,69.50
2019-06-07T11:09:28.711Z,69.30
2019-06-07T11:11:59.824Z,69.50
2019-06-07T11:14:30.789Z,69.40
2019-06-07T11:17:01.672Z,69.40
2019-06-07T11:19:32.522Z,69.50
2019-06-07T11:22:03.505Z,69.90
2019-06-07T11:24:34.449Z,69.80
2019-06-07T11:27:07.212Z,69.80
2019-06-07T11:29:37.673Z,69.90
2019-06-07T11:32:08.530Z,70.00
2019-06-07T11:34:39.497Z,70.10
2019-06-07T11:37:11.743Z,70.30
2019-06-07T11:39:43.768Z,70.40
2019-06-07T11:42:14.727Z,70.70
2019-06-07T11:44:56.389Z,70.70
2019-06-07T11:47:18.434Z,70.90
2019-06-07T11:49:49.168Z,71.20
2019-06-07T11:52:20.387Z,71.40
2019-06-07T11:54:51.356Z,71.50
2019-06-07T11:57:22.185Z,71.80
2019-06-07T11:59:53.165Z,71.90
2019-06-07T12:02:24.336Z,72.20
2019-06-07T12:04:55.105Z,72.20
2019-06-07T12:07:25.963Z,72.40
2019-06-07T12:09:57.048Z,72.50
2019-06-07T12:12:28.065Z,72.60
2019-06-07T12:14:58.997Z,72.60
2019-06-07T12:17:29.984Z,72.70
2019-06-07T12:20:00.775Z,72.90
2019-06-07T12:22:31.819Z,72.90
2019-06-07T12:25:05.687Z,73.30
2019-06-07T12:27:34.719Z,73.30
2019-06-07T12:30:11.187Z,73.40
2019-06-07T12:32:39.572Z,73.60
2019-06-07T12:35:11.528Z,73.60
2019-06-07T12:37:44.933Z,73.90
2019-06-07T12:40:26.476Z,74.00
2019-06-07T12:42:48.542Z,74.10
2019-06-07T12:45:40.158Z,74.50
2019-06-07T12:47:54.110Z,74.60
2019-06-07T12:50:41.877Z,74.80
2019-06-07T12:52:58.091Z,74.90
2019-06-07T12:55:28.909Z,74.80
2019-06-07T12:57:59.874Z,74.60
2019-06-07T13:00:31.044Z,74.50
2019-06-07T13:03:01.795Z,74.90
2019-06-07T13:05:32.729Z,76.00
2019-06-07T13:08:03.537Z,75.20
2019-06-07T13:10:36.463Z,75.60
2019-06-07T13:13:07.322Z,75.90
2019-06-07T13:15:38.089Z,76.10
2019-06-07T13:18:08.910Z,76.40
2019-06-07T13:20:39.785Z,76.60
2019-06-07T13:23:10.685Z,76.80
2019-06-07T13:25:46.461Z,77.00
2019-06-07T13:28:14.068Z,77.10
2019-06-07T13:30:44.995Z,77.30
2019-06-07T13:33:16.872Z,77.20
2019-06-07T13:35:47.935Z,76.90
2019-06-07T13:38:20.611Z,76.80
2019-06-07T13:40:51.343Z,77.00
2019-06-07T13:43:22.143Z,77.20
2019-06-07T13:45:53.046Z,77.10
2019-06-07T13:48:25.248Z,77.50
2019-06-07T13:50:56.274Z,77.80
2019-06-07T13:53:27.033Z,77.70
2019-06-07T13:55:57.781Z,77.50
2019-06-07T13:58:28.728Z,78.50
2019-06-07T14:00:59.625Z,78.70
2019-06-07T14:03:33.608Z,78.50
2019-06-07T14:06:02.609Z,78.50
2019-06-07T14:08:33.653Z,78.60
2019-06-07T14:11:04.574Z,79.00
2019-06-07T14:13:35.306Z,79.20
2019-06-07T14:16:06.208Z,79.40
2019-06-07T14:18:36.920Z,79.70
2019-06-07T14:21:07.648Z,79.80
2019-06-07T14:23:48.385Z,79.90
2019-06-07T14:26:10.792Z,79.90
2019-06-07T14:28:41.643Z,79.70
2019-06-07T14:31:12.576Z,79.60
2019-06-07T14:33:43.295Z,79.80
2019-06-07T14:36:14.131Z,79.80
2019-06-07T14:38:44.934Z,80.10
2019-06-07T14:41:15.807Z,80.00
2019-06-07T14:43:46.581Z,80.00
2019-06-07T14:46:17.547Z,79.90
2019-06-07T14:48:48.103Z,80.00
2019-06-07T14:51:18.965Z,80.30
2019-06-07T14:53:49.823Z,80.20
2019-06-07T14:56:20.767Z,80.20
2019-06-07T14:58:51.474Z,80.80
2019-06-07T15:01:22.481Z,81.10
2019-06-07T15:03:53.564Z,81.30
2019-06-07T15:06:24.365Z,81.50
2019-06-07T15:08:55.278Z,81.30
2019-06-07T15:11:26.850Z,81.40
2019-06-07T15:13:57.592Z,81.10
2019-06-07T15:16:29.977Z,81.30
2019-06-07T15:19:00.696Z,81.80
2019-06-07T15:21:32.834Z,82.40
2019-06-07T15:24:03.865Z,83.20
2019-06-07T15:26:34.818Z,82.20
2019-06-07T15:29:05.598Z,82.20
2019-06-07T15:31:36.826Z,82.40
2019-06-07T15:34:08.760Z,83.40
2019-06-07T15:36:39.766Z,82.60
2019-06-07T15:39:10.563Z,82.70
2019-06-07T15:41:41.472Z,83.00
2019-06-07T15:44:12.378Z,83.40
2019-06-07T15:46:43.125Z,83.50
2019-06-07T15:49:14.006Z,83.90
2019-06-07T15:51:44.803Z,84.40
2019-06-07T15:54:15.678Z,83.90
2019-06-07T15:56:47.667Z,83.90
2019-06-07T15:59:18.631Z,83.70
2019-06-07T16:01:49.486Z,83.80
2019-06-07T16:04:20.660Z,83.90
2019-06-07T16:06:51.479Z,83.90
2019-06-07T16:09:22.331Z,83.90
2019-06-07T16:11:53.472Z,83.90
2019-06-07T16:14:24.333Z,84.10
2019-06-07T16:16:55.183Z,84.50
2019-06-07T16:19:26.115Z,84.10
2019-06-07T16:21:56.808Z,84.10
2019-06-07T16:24:27.656Z,84.30
2019-06-07T16:26:58.812Z,84.30
2019-06-07T16:29:29.634Z,84.30
2019-06-07T16:32:00.423Z,84.30
2019-06-07T16:34:31.290Z,84.10
2019-06-07T16:37:02.108Z,84.00
2019-06-07T16:39:33.238Z,84.30
2019-06-07T16:42:04.092Z,84.80
2019-06-07T16:44:34.879Z,84.40
2019-06-07T16:47:05.715Z,83.90
2019-06-07T16:49:36.743Z,84.10
2019-06-07T16:52:07.839Z,83.90
2019-06-07T16:54:39.329Z,84.30
2019-06-07T16:57:10.127Z,84.80
2019-06-07T16:59:41.103Z,85.00
2019-06-07T17:02:12.055Z,84.60
2019-06-07T17:04:43.540Z,84.50
2019-06-07T17:07:14.415Z,84.80
2019-06-07T17:09:47.749Z,84.90
2019-06-07T17:12:18.090Z,85.10
2019-06-07T17:14:49.097Z,85.50
2019-06-07T17:17:19.796Z,85.80
2019-06-07T17:19:50.625Z,85.90
2019-06-07T17:22:21.578Z,85.70
2019-06-07T17:24:52.507Z,86.20
2019-06-07T17:27:23.357Z,85.80
2019-06-07T17:29:54.223Z,85.90
2019-06-07T17:32:24.886Z,85.70
2019-06-07T17:34:55.890Z,85.80
2019-06-07T17:37:26.894Z,85.70
2019-06-07T17:39:57.650Z,85.80
2019-06-07T17:42:28.626Z,85.70
2019-06-07T17:44:59.609Z,85.50
2019-06-07T17:47:30.464Z,85.70
2019-06-07T17:50:02.926Z,85.60
2019-06-07T17:52:34.066Z,85.60
2019-06-07T17:55:06.157Z,85.70
2019-06-07T17:57:37.051Z,85.90
2019-06-07T18:00:29.209Z,85.50
2019-06-07T18:02:42.682Z,86.30
2019-06-07T18:05:14.134Z,86.30
2019-06-07T18:07:49.576Z,86.50
2019-06-07T18:10:25.493Z,86.30
2019-06-07T18:12:56.269Z,86.60
2019-06-07T18:15:29.546Z,86.60
2019-06-07T18:18:00.662Z,86.50
2019-06-07T18:20:31.378Z,86.50
2019-06-07T18:23:02.151Z,87.00
2019-06-07T18:25:33.038Z,87.00
2019-06-07T18:28:03.963Z,86.70
2019-06-07T18:30:34.561Z,86.30
2019-06-07T18:33:05.301Z,86.10
2019-06-07T18:35:36.384Z,86.20
2019-06-07T18:38:10.580Z,86.60
2019-06-07T18:40:39.663Z,86.60
2019-06-07T18:43:10.341Z,86.60
2019-06-07T18:45:41.225Z,87.20
2019-06-07T18:48:12.199Z,87.60
2019-06-07T18:50:43.150Z,87.70
2019-06-07T18:53:14.104Z,88.00
2019-06-07T18:55:44.832Z,88.10
2019-06-07T18:58:15.644Z,88.40
2019-06-07T19:00:47.307Z,88.40
2019-06-07T19:03:20.838Z,88.40
2019-06-07T19:05:52.164Z,88.50
2019-06-07T19:08:23.245Z,88.40
2019-06-07T19:10:54.813Z,88.70
2019-06-07T19:13:25.623Z,88.50
2019-06-07T19:15:57.473Z,88.60
2019-06-07T19:18:28.420Z,88.80
2019-06-07T19:21:00.564Z,88.60
2019-06-07T19:23:31.682Z,88.40
2019-06-07T19:26:03.237Z,88.30
2019-06-07T19:28:34.134Z,88.10
2019-06-07T19:31:05.155Z,88.20
2019-06-07T19:33:48.355Z,88.80
2019-06-07T19:36:08.032Z,89.00
2019-06-07T19:38:38.934Z,88.90
2019-06-07T19:41:19.151Z,88.80
2019-06-07T19:43:41.827Z,88.60
2019-06-07T19:46:12.815Z,88.60
2019-06-07T19:48:43.979Z,88.80
2019-06-07T19:51:14.850Z,89.40
2019-06-07T19:53:45.811Z,89.60
2019-06-07T19:56:16.846Z,89.50
2019-06-07T19:58:48.116Z,89.50
2019-06-07T20:01:18.962Z,89.80
2019-06-07T20:03:49.946Z,89.90
2019-06-07T20:06:20.893Z,89.70
2019-06-07T20:08:51.787Z,89.40
2019-06-07T20:11:22.678Z,89.30
2019-06-07T20:13:54.462Z,89.60
2019-06-07T20:16:25.524Z,89.30
2019-06-07T20:18:56.386Z,89.70
2019-06-07T20:21:27.448Z,89.90
2019-06-07T20:24:01.638Z,89.70
2019-06-07T20:26:30.500Z,89.50
2019-06-07T20:29:01.352Z,89.40
2019-06-07T20:31:32.581Z,89.50
2019-06-07T20:34:04.156Z,89.60
2019-06-07T20:36:35.558Z,89.60
2019-06-07T20:39:08.746Z,89.90
2019-06-07T20:41:39.434Z,90.00
2019-06-07T20:44:10.370Z,89.90
2019-06-07T20:46:41.213Z,89.90
2019-06-07T20:49:12.200Z,89.70
2019-06-07T20:51:42.962Z,89.60
2019-06-07T20:54:13.778Z,89.50
2019-06-07T20:56:44.844Z,89.40
2019-06-07T20:59:15.738Z,89.30
2019-06-07T21:01:46.695Z,89.20
2019-06-07T21:04:17.577Z,89.70
2019-06-07T21:06:48.556Z,89.60
2019-06-07T21:09:19.323Z,89.40
2019-06-07T21:11:50.052Z,89.30
2019-06-07T21:14:20.810Z,89.80
2019-06-07T21:16:51.738Z,90.00
2019-06-07T21:19:24.646Z,90.10
2019-06-07T21:21:55.580Z,90.00
2019-06-07T21:24:26.269Z,90.10
2019-06-07T22:57:48.709Z,90.30
2019-06-07T23:00:20.815Z,90.30
2019-06-07T23:02:52.142Z,90.70
2019-06-07T23:05:23.162Z,90.30
2019-06-07T23:07:54.181Z,90.30
2019-06-07T23:10:25.544Z,90.30
2019-06-07T23:12:56.162Z,90.20
2019-06-07T23:15:27.217Z,90.20
2019-06-07T23:17:58.114Z,90.10
2019-06-07T23:20:28.844Z,90.20
2019-06-07T23:22:59.710Z,90.10
2019-06-07T23:25:30.439Z,89.90
2019-06-07T23:28:01.167Z,89.70
2019-06-07T23:30:31.983Z,89.40
2019-06-07T23:33:03.069Z,89.20
2019-06-07T23:35:34.020Z,89.10
2019-06-07T23:38:04.922Z,88.90
2019-06-07T23:40:35.661Z,88.70
2019-06-07T23:43:06.475Z,88.60
2019-06-07T23:45:37.163Z,88.40
2019-06-07T23:48:08.136Z,88.40
2019-06-07T23:50:39.110Z,88.20
2019-06-07T23:53:09.895Z,88.00
2019-06-07T23:55:40.738Z,87.90
2019-06-07T23:58:11.875Z,87.70
